createdAt,value
2023-04-23T00:02:26.931Z,5.12
2023-04-23T00:05:30.484Z,4.75
2023-04-23T00:08:33.120Z,5.13
2023-04-23T00:11:35.378Z,4.70
2023-04-23T00:14:37.537Z,5.15
2023-04-23T00:17:39.612Z,5.15
2023-04-23T00:20:43.587Z,5.20
2023-04-23T00:23:45.717Z,5.20
2023-04-23T00:26:47.629Z,5.30
2023-04-23T00:29:51.400Z,5.15
2023-04-23T00:32:53.379Z,6.00
2023-04-23T00:35:55.674Z,5.30
2023-04-23T00:38:57.799Z,5.13
2023-04-23T00:42:02.204Z,5.40
2023-04-23T00:45:05.994Z,5.35
2023-04-23T00:48:08.965Z,5.32
2023-04-23T00:51:11.861Z,5.60
2023-04-23T00:54:14.408Z,4.97
2023-04-23T00:57:17.063Z,5.43
2023-04-23T01:00:20.529Z,5.12
2023-04-23T01:03:27.564Z,5.55
2023-04-23T01:06:31.912Z,5.65
2023-04-23T01:09:34.266Z,6.03
2023-04-23T01:12:36.543Z,5.30
2023-04-23T01:15:38.559Z,5.68
2023-04-23T01:18:41.223Z,5.35
2023-04-23T01:21:43.374Z,5.72
2023-04-23T01:24:45.863Z,6.10
2023-04-23T01:27:48.529Z,5.93
2023-04-23T01:30:51.447Z,6.00
2023-04-23T01:33:55.504Z,5.93
2023-04-23T01:36:59.159Z,5.30
2023-04-23T01:40:01.204Z,5.73
2023-04-23T01:43:04.116Z,5.90
2023-04-23T01:46:06.323Z,5.32
2023-04-23T01:49:08.854Z,5.90
2023-04-23T01:52:11.476Z,5.82
2023-04-23T01:55:14.302Z,6.03
2023-04-23T01:58:16.258Z,5.73
2023-04-23T02:01:18.502Z,5.40
2023-04-23T02:04:21.477Z,5.40
2023-04-23T02:07:23.550Z,6.57
2023-04-23T02:10:26.188Z,5.67
2023-04-23T02:13:28.150Z,5.00
2023-04-23T02:16:31.256Z,5.37
2023-04-23T02:19:35.168Z,5.20
2023-04-23T02:22:39.330Z,5.87
2023-04-23T02:25:41.353Z,5.63
2023-04-23T02:28:43.415Z,5.43
2023-04-23T02:31:45.439Z,5.95
2023-04-23T02:34:47.364Z,5.60
2023-04-23T02:37:49.367Z,5.85
2023-04-23T02:40:51.450Z,5.67
2023-04-23T02:43:53.911Z,5.27
2023-04-23T02:46:56.456Z,5.82
2023-04-23T02:49:59.326Z,5.85
2023-04-23T02:53:01.458Z,5.68
2023-04-23T02:56:03.546Z,5.97
2023-04-23T02:59:06.626Z,5.77
2023-04-23T03:02:08.819Z,5.95
2023-04-23T03:05:10.861Z,5.60
2023-04-23T03:08:12.802Z,5.40
2023-04-23T03:11:14.717Z,6.07
2023-04-23T03:14:16.691Z,5.87
2023-04-23T03:17:18.687Z,5.40
2023-04-23T03:20:20.742Z,6.12
2023-04-23T03:23:22.837Z,5.40
2023-04-23T03:26:24.749Z,5.43
2023-04-23T03:29:27.385Z,5.70
2023-04-23T03:32:29.709Z,5.70
2023-04-23T03:35:31.677Z,5.57
2023-04-23T03:38:33.622Z,6.55
2023-04-23T03:41:35.690Z,6.57
2023-04-23T03:44:37.626Z,6.40
2023-04-23T03:47:40.512Z,7.05
2023-04-23T03:50:42.470Z,7.12
2023-04-23T03:53:45.710Z,7.20
2023-04-23T03:56:47.652Z,6.83
2023-04-23T03:59:49.661Z,7.40
2023-04-23T04:02:51.906Z,6.82
2023-04-23T04:05:54.194Z,6.95
2023-04-23T04:08:56.369Z,6.35
2023-04-23T04:11:58.253Z,6.53
2023-04-23T04:15:00.408Z,6.43
2023-04-23T04:18:02.466Z,6.70
2023-04-23T04:21:04.605Z,6.95
2023-04-23T04:24:06.729Z,6.95
2023-04-23T04:27:09.190Z,6.10
2023-04-23T04:30:11.610Z,6.07
2023-04-23T04:33:15.172Z,6.05
2023-04-23T04:36:18.313Z,6.57
2023-04-23T04:39:20.848Z,6.40
2023-04-23T04:42:22.828Z,6.90
2023-04-23T04:45:25.883Z,6.63
2023-04-23T04:48:27.952Z,6.18
2023-04-23T04:51:30.476Z,6.68
2023-04-23T04:54:32.452Z,7.00
2023-04-23T04:57:34.368Z,7.13
2023-04-23T05:00:36.630Z,7.10
2023-04-23T05:03:39.428Z,6.75
2023-04-23T05:06:41.608Z,7.20
2023-04-23T05:09:45.091Z,7.28
2023-04-23T05:12:47.764Z,7.77
2023-04-23T05:15:49.739Z,7.97
2023-04-23T05:18:52.234Z,8.40
2023-04-23T05:21:54.330Z,7.93
2023-04-23T05:24:56.421Z,9.00
2023-04-23T05:27:58.405Z,8.70
2023-04-23T05:31:00.852Z,9.13
2023-04-23T05:34:03.059Z,8.20
2023-04-23T05:37:05.988Z,8.70
2023-04-23T05:40:09.271Z,8.07
2023-04-23T05:43:12.762Z,6.70
2023-04-23T05:46:14.722Z,6.07
2023-04-23T05:49:16.719Z,6.57
2023-04-23T05:52:19.266Z,7.47
2023-04-23T05:55:21.857Z,7.28
2023-04-23T05:58:23.844Z,6.45
2023-04-23T06:01:25.834Z,5.77
2023-04-23T06:04:28.117Z,6.62
2023-04-23T06:07:30.287Z,6.07
2023-04-23T06:10:32.372Z,6.53
2023-04-23T06:13:42.849Z,6.47
2023-04-23T06:16:45.660Z,6.10
2023-04-23T06:19:47.575Z,5.70
2023-04-23T06:22:49.561Z,5.87
2023-04-23T06:25:51.527Z,6.37
2023-04-23T06:28:53.803Z,6.28
2023-04-23T06:31:57.004Z,5.87
2023-04-23T06:35:01.993Z,5.57
2023-04-23T06:38:04.337Z,6.15
2023-04-23T06:41:06.823Z,4.62
2023-04-23T06:44:08.803Z,6.25
2023-04-23T06:47:10.891Z,5.80
2023-04-23T06:50:12.939Z,5.80
2023-04-23T06:53:15.756Z,5.68
2023-04-23T06:56:17.719Z,6.03
2023-04-23T06:59:19.915Z,5.55
2023-04-23T07:02:21.874Z,5.37
2023-04-23T07:05:24.060Z,5.45
2023-04-23T07:08:26.337Z,5.40
2023-04-23T07:11:29.737Z,5.05
2023-04-23T07:14:32.508Z,4.78
2023-04-23T07:17:35.119Z,4.63
2023-04-23T07:20:37.724Z,5.43
2023-04-23T07:23:39.697Z,4.45
2023-04-23T07:26:41.573Z,4.68
2023-04-23T07:29:46.973Z,4.85
2023-04-23T07:32:49.109Z,5.20
2023-04-23T07:35:51.190Z,4.50
2023-04-23T07:38:53.549Z,4.65
2023-04-23T07:41:56.938Z,4.43
2023-04-23T07:44:58.964Z,4.22
2023-04-23T07:48:02.523Z,4.60
2023-04-23T07:51:04.720Z,4.40
2023-04-23T07:54:06.829Z,4.53
2023-04-23T07:57:08.877Z,4.28
2023-04-23T08:00:11.502Z,4.40
2023-04-23T08:03:14.492Z,4.27
2023-04-23T08:06:16.756Z,4.50
2023-04-23T08:09:18.949Z,5.00
2023-04-23T08:12:21.504Z,4.20
2023-04-23T08:15:23.578Z,5.03
2023-04-23T08:18:25.631Z,5.27
2023-04-23T08:21:29.024Z,4.25
2023-04-23T08:24:31.015Z,3.97
2023-04-23T08:27:32.938Z,4.95
2023-04-23T08:30:35.631Z,4.55
2023-04-23T08:33:37.668Z,4.60
2023-04-23T08:36:40.163Z,4.80
2023-04-23T08:39:42.411Z,3.95
2023-04-23T08:42:58.287Z,4.10
2023-04-23T08:46:06.260Z,3.87
2023-04-23T08:49:09.231Z,4.30
2023-04-23T08:52:19.299Z,4.57
2023-04-23T08:55:22.831Z,4.62
2023-04-23T08:58:28.077Z,4.37
2023-04-23T09:01:30.879Z,4.90
2023-04-23T09:04:34.185Z,4.93
2023-04-23T09:07:36.758Z,4.55
2023-04-23T09:10:42.315Z,4.25
2023-04-23T09:13:44.314Z,4.50
2023-04-23T09:16:46.466Z,4.12
2023-04-23T09:19:50.494Z,4.73
2023-04-23T09:22:52.822Z,4.65
2023-04-23T09:25:57.207Z,4.75
2023-04-23T09:28:59.221Z,4.70
2023-04-23T09:32:09.880Z,4.50
2023-04-23T09:35:17.055Z,4.73
2023-04-23T09:38:19.956Z,4.07
2023-04-23T09:41:23.193Z,4.03
2023-04-23T09:44:26.615Z,4.40
2023-04-23T09:47:32.504Z,4.25
2023-04-23T09:50:41.028Z,4.03
2023-04-23T09:53:44.223Z,4.47
2023-04-23T09:56:51.320Z,4.70
2023-04-23T10:00:03.369Z,4.20
2023-04-23T10:03:13.714Z,4.50
2023-04-23T10:06:25.741Z,4.43
2023-04-23T10:09:38.003Z,4.85
2023-04-23T10:12:53.594Z,3.92
2023-04-23T10:16:07.084Z,3.92
2023-04-23T10:19:19.636Z,4.62
2023-04-23T10:22:22.797Z,4.10
2023-04-23T10:25:25.756Z,4.15
2023-04-23T10:28:32.922Z,4.18
2023-04-23T10:31:36.985Z,3.97
2023-04-23T10:34:40.925Z,3.95
2023-04-23T10:37:44.607Z,4.00
2023-04-23T10:40:51.106Z,3.72
2023-04-23T10:43:53.900Z,3.65
2023-04-23T10:46:58.471Z,4.28
2023-04-23T10:50:28.450Z,4.00
2023-04-23T10:53:32.197Z,4.37
2023-04-23T10:56:34.386Z,3.90
2023-04-23T10:59:41.504Z,4.12
2023-04-23T11:02:45.061Z,4.30
2023-04-23T11:05:47.108Z,4.00
2023-04-23T11:08:56.675Z,4.80
2023-04-23T11:12:00.257Z,3.67
2023-04-23T11:15:16.430Z,4.18
2023-04-23T11:18:18.558Z,3.83
2023-04-23T11:21:20.725Z,4.32
2023-04-23T11:24:24.006Z,4.00
2023-04-23T11:27:26.158Z,3.80
2023-04-23T11:30:30.067Z,3.87
2023-04-23T11:33:32.205Z,4.00
2023-04-23T11:36:34.739Z,3.97
2023-04-23T11:39:44.203Z,4.63
2023-04-23T11:42:47.862Z,4.03
2023-04-23T11:45:49.803Z,3.33
2023-04-23T11:48:51.887Z,3.85
2023-04-23T11:51:54.101Z,3.90
2023-04-23T11:54:56.359Z,3.00
2023-04-23T11:57:58.405Z,3.75
2023-04-23T12:01:00.862Z,4.43
2023-04-23T12:04:10.587Z,4.35
2023-04-23T12:07:23.392Z,4.30
2023-04-23T12:10:28.521Z,3.77
2023-04-23T12:13:33.811Z,3.83
2023-04-23T12:16:40.032Z,4.70
2023-04-23T12:19:44.937Z,4.35
2023-04-23T12:22:47.311Z,3.80
2023-04-23T12:25:49.633Z,3.23
2023-04-23T12:28:53.008Z,3.85
2023-04-23T12:31:58.802Z,3.65
2023-04-23T12:35:00.886Z,4.00
2023-04-23T12:38:23.869Z,3.80
2023-04-23T12:41:25.853Z,3.43
2023-04-23T12:44:28.396Z,3.90
2023-04-23T12:47:30.420Z,3.25
2023-04-23T12:50:32.501Z,3.45
2023-04-23T12:53:34.645Z,3.30
2023-04-23T12:56:37.820Z,2.83
2023-04-23T12:59:40.271Z,3.33
2023-04-23T13:02:42.517Z,3.10
2023-04-23T13:05:45.217Z,3.37
2023-04-23T13:08:47.386Z,3.50
2023-04-23T13:11:49.980Z,3.30
2023-04-23T13:14:52.146Z,3.80
2023-04-23T13:17:54.180Z,4.15
2023-04-23T13:20:57.617Z,3.80
2023-04-23T13:23:59.559Z,4.30
2023-04-23T13:27:01.951Z,3.50
2023-04-23T13:30:04.473Z,4.15
2023-04-23T13:33:06.513Z,4.05
2023-04-23T13:36:08.923Z,3.47
2023-04-23T13:39:14.170Z,4.10
2023-04-23T13:42:16.221Z,3.70
2023-04-23T13:45:18.339Z,3.85
2023-04-23T13:48:20.408Z,3.42
2023-04-23T13:51:34.017Z,3.85
2023-04-23T13:54:38.328Z,3.90
2023-04-23T13:57:40.494Z,4.20
2023-04-23T14:00:43.222Z,3.67
2023-04-23T14:03:45.542Z,4.00
2023-04-23T14:06:47.523Z,4.75
2023-04-23T14:09:52.837Z,3.70
2023-04-23T14:12:55.901Z,3.20
2023-04-23T14:15:58.131Z,3.50
2023-04-23T14:19:00.768Z,3.87
2023-04-23T14:22:03.746Z,3.80
2023-04-23T14:25:45.405Z,4.25
2023-04-23T14:28:51.693Z,3.77
2023-04-23T14:31:53.983Z,4.00
2023-04-23T14:34:55.885Z,4.20
2023-04-23T14:37:58.025Z,3.30
2023-04-23T14:41:00.592Z,3.50
2023-04-23T14:44:03.206Z,3.10
2023-04-23T14:47:08.192Z,3.12
2023-04-23T14:50:10.819Z,2.70
2023-04-23T14:53:12.909Z,2.60
2023-04-23T14:56:15.171Z,2.30
2023-04-23T14:59:17.792Z,2.37
2023-04-23T15:02:19.778Z,2.30
2023-04-23T15:05:22.289Z,2.78
2023-04-23T15:08:24.461Z,2.12
2023-04-23T15:11:26.592Z,2.10
2023-04-23T15:14:33.188Z,2.50
2023-04-23T15:17:35.232Z,2.25
2023-04-23T15:20:37.382Z,2.00
2023-04-23T15:23:41.449Z,1.90
2023-04-23T15:26:46.061Z,2.00
2023-04-23T15:29:49.415Z,2.12
2023-04-23T15:32:52.263Z,2.10
2023-04-23T15:35:54.211Z,2.28
2023-04-23T15:38:56.297Z,2.17
2023-04-23T15:41:58.361Z,2.30
2023-04-23T15:45:00.462Z,2.50
2023-04-23T15:48:02.577Z,2.37
2023-04-23T15:51:04.891Z,2.80
2023-04-23T15:54:08.834Z,2.60
2023-04-23T15:57:11.331Z,2.60
2023-04-23T16:00:13.946Z,2.40
2023-04-23T16:03:16.209Z,2.75
2023-04-23T16:06:18.550Z,3.17
2023-04-23T16:09:20.774Z,3.00
2023-04-23T16:12:23.099Z,2.53
2023-04-23T16:15:25.876Z,2.37
2023-04-23T16:18:27.808Z,2.33
2023-04-23T16:21:30.455Z,2.40
2023-04-23T16:24:32.549Z,2.47
2023-04-23T16:27:34.562Z,2.10
2023-04-23T16:30:37.065Z,2.12
2023-04-23T16:33:40.916Z,2.50
2023-04-23T16:36:43.020Z,2.10
2023-04-23T16:39:45.463Z,2.50
2023-04-23T16:42:49.110Z,2.13
2023-04-23T16:45:51.614Z,2.50
2023-04-23T16:48:53.641Z,2.50
2023-04-23T16:51:57.500Z,2.87
2023-04-23T16:55:00.171Z,2.92
2023-04-23T16:58:03.276Z,3.80
2023-04-23T17:01:05.945Z,4.32
2023-04-23T17:04:08.431Z,3.50
2023-04-23T17:07:11.044Z,3.53
2023-04-23T17:10:15.492Z,4.40
2023-04-23T17:13:18.478Z,4.40
2023-04-23T17:16:21.407Z,4.00
2023-04-23T17:19:23.569Z,3.65
2023-04-23T17:22:26.261Z,3.97
2023-04-23T17:25:28.703Z,3.65
2023-04-23T17:28:31.945Z,2.43
2023-04-23T17:31:36.109Z,3.10
2023-04-23T17:34:41.077Z,3.12
2023-04-23T17:37:53.020Z,4.70
2023-04-23T17:40:55.934Z,8.20
2023-04-23T17:43:59.780Z,3.20
2023-04-23T17:47:02.533Z,2.78
2023-04-23T17:50:10.347Z,2.97
2023-04-23T17:53:13.536Z,3.00
2023-04-23T17:56:16.748Z,3.10
2023-04-23T17:59:19.154Z,3.70
2023-04-23T18:02:22.075Z,3.87
2023-04-23T18:05:25.119Z,3.30
2023-04-23T18:08:28.386Z,3.28
2023-04-23T18:11:30.713Z,2.80
2023-04-23T18:14:33.415Z,3.27
2023-04-23T18:17:36.063Z,3.12
2023-04-23T18:20:39.701Z,3.00
2023-04-23T18:23:42.469Z,2.97
2023-04-23T18:26:46.584Z,2.87
2023-04-23T18:29:49.069Z,2.73
2023-04-23T18:33:19.575Z,2.90
2023-04-23T18:36:31.808Z,2.58
2023-04-23T18:39:34.332Z,2.75
2023-04-23T18:42:37.746Z,2.90
2023-04-23T18:45:40.275Z,3.27
2023-04-23T18:48:52.481Z,2.60
2023-04-23T18:51:55.737Z,2.92
2023-04-23T18:54:58.413Z,2.90
2023-04-23T18:58:01.194Z,3.20
2023-04-23T19:01:04.139Z,3.10
2023-04-23T19:04:07.562Z,2.72
2023-04-23T19:07:10.524Z,3.00
2023-04-23T19:10:14.368Z,3.50
2023-04-23T19:13:17.314Z,3.15
2023-04-23T19:16:21.078Z,3.43
2023-04-23T19:19:25.444Z,3.42
2023-04-23T19:22:28.019Z,3.15
2023-04-23T19:25:30.689Z,3.70
2023-04-23T19:28:33.361Z,3.75
2023-04-23T19:31:36.509Z,3.70
2023-04-23T19:34:39.045Z,3.20
2023-04-23T19:37:41.255Z,3.87
2023-04-23T19:40:44.561Z,4.35
2023-04-23T19:43:47.264Z,3.70
2023-04-23T19:46:50.189Z,3.97
2023-04-23T19:49:52.801Z,3.28
2023-04-23T19:52:57.819Z,3.30
2023-04-23T19:56:01.527Z,3.67
2023-04-23T19:59:04.535Z,3.62
2023-04-23T20:02:07.341Z,3.83
2023-04-23T20:05:13.405Z,3.28
2023-04-23T20:08:26.031Z,2.90
2023-04-23T20:11:29.083Z,3.92
2023-04-23T20:14:32.000Z,4.10
2023-04-23T20:17:34.788Z,3.83
2023-04-23T20:20:37.605Z,3.08
2023-04-23T20:23:39.532Z,3.05
2023-04-23T20:26:42.857Z,3.80
2023-04-23T20:29:45.416Z,3.28
2023-04-23T20:32:47.956Z,3.70
2023-04-23T20:35:51.048Z,4.10
2023-04-23T20:38:54.791Z,4.40
2023-04-23T20:41:57.927Z,4.28
2023-04-23T20:45:00.636Z,4.40
2023-04-23T20:48:03.730Z,4.63
2023-04-23T20:51:05.824Z,3.72
2023-04-23T20:54:07.955Z,4.07
2023-04-23T20:57:09.938Z,3.53
2023-04-23T21:00:12.583Z,4.35
2023-04-23T21:03:14.847Z,4.17
2023-04-23T21:06:17.493Z,4.95
2023-04-23T21:09:19.656Z,3.55
2023-04-23T21:12:21.896Z,4.30
2023-04-23T21:15:24.368Z,4.05
2023-04-23T21:18:26.836Z,4.77
2023-04-23T21:21:30.121Z,4.12
2023-04-23T21:24:32.003Z,4.22
2023-04-23T21:27:34.210Z,4.32
2023-04-23T21:30:51.991Z,4.50
2023-04-23T21:33:56.893Z,4.47
2023-04-23T21:36:59.023Z,4.07
2023-04-23T21:40:01.032Z,4.30
2023-04-23T21:43:04.168Z,4.18
2023-04-23T21:46:07.240Z,4.55
2023-04-23T21:49:09.163Z,4.17
2023-04-23T21:52:11.446Z,3.70
2023-04-23T21:55:13.822Z,4.10
2023-04-23T21:58:17.954Z,4.45
2023-04-23T22:01:20.435Z,4.60
2023-04-23T22:04:22.736Z,4.43
2023-04-23T22:07:26.906Z,4.25
2023-04-23T22:10:30.987Z,4.25
2023-04-23T22:13:33.608Z,3.85
2023-04-23T22:16:35.619Z,4.45
2023-04-23T22:19:37.716Z,3.90
2023-04-23T22:22:42.233Z,3.85
2023-04-23T22:25:44.896Z,4.00
2023-04-23T22:28:47.004Z,3.87
2023-04-23T22:31:48.966Z,4.00
2023-04-23T22:34:52.874Z,3.33
2023-04-23T22:37:54.936Z,4.10
2023-04-23T22:40:57.041Z,3.67
2023-04-23T22:43:58.969Z,3.97
2023-04-23T22:47:00.941Z,3.53
2023-04-23T22:50:04.033Z,3.50
2023-04-23T22:53:06.914Z,2.92
2023-04-23T22:56:09.061Z,3.83
2023-04-23T22:59:13.522Z,3.55
2023-04-23T23:02:15.791Z,3.58
2023-04-23T23:05:17.897Z,3.47
2023-04-23T23:08:19.873Z,3.53
2023-04-23T23:11:22.314Z,4.18
2023-04-23T23:14:24.732Z,3.35
2023-04-23T23:17:26.699Z,3.62
2023-04-23T23:20:28.744Z,3.50
2023-04-23T23:23:30.973Z,4.03
2023-04-23T23:26:33.054Z,3.83
2023-04-23T23:29:35.075Z,3.70
2023-04-23T23:32:37.370Z,3.70
2023-04-23T23:35:41.101Z,4.03
2023-04-23T23:38:43.848Z,3.85
2023-04-23T23:41:47.157Z,3.65
2023-04-23T23:44:49.242Z,4.12
2023-04-23T23:47:51.369Z,3.40
2023-04-23T23:50:55.175Z,3.50
2023-04-23T23:53:57.224Z,2.90
2023-04-23T23:56:59.948Z,3.67
